Record high temperature 100.8°F Record low temperature -75.5°F Record high gust 121.0 mph Record high average 61.8 mph Record daily rain 2.61 in. Record low windchill -106.6°F Record high barometer 31.889 in. Record low barometer 23.642 in.
Daily high pressure 30.107 in. Daily low pressure 30.072 in. Daily low windchill 37.7°F Daily high heat index 44.7°F Daily high gust speed 18.9 mph NNW Daily high average speed 9.0 mph NNW
Weather Data
LAST READING AT TIME: 2:20 AM DATE: October 02 2014, time of next update: 02:30 am
Current WeatherNight time/Dry Current Temperature 41.9°F (5.5°C), Apparent temp 37.4°F
Maximum Temperature (since midnight)44.7°F at: 12:00 AM Minimum Temperature (since midnight)41.9°F at: 2:18 AM
Average windspeed (ten minute)3.3 mph Wind Direction (ten minute)NNW (343°)
Windchill Temperature 38.1°F Maximum Gust (last hour)18.9 mph at: 1:33 AM
Maximum Gust (since midnight)18.9 mph at: 1:33 AM Maximum 1 minute average (since midnight)9.0 mph at: 1:34 AM
Rainfall (last hour)0.00 in. (0.0 mm) Rainfall (since midnight)0.00 in. (0.0 mm) ---
Rainfall This month 0.00 in. (0.0 mm) Rainfall To date this year 7.32 in. (186.0 mm)
Maximum rain per minute (last hour)0.00 in/min Maximum rain per hour (last 6 hours)0.00 in/hour
Yesterdays rainfall 0.00 in DewPoint 40.0°F (Wet Bulb :41.1°F )
Humidity 93 %, Humidex 40.3°F Barometer corrected to msl30.106 in. (1019.5 hPa)
Pressure change +0.02 in. (last hour) Trend (last hour)RISING SLOWLY
Pressure change (last 12 hours)+0.20 in Pressure change (last 6 hours)+0.09 in

This page is updated from recent data collected by a DAVIS WMII weather station Use the Reload or Refresh facility on your browser to retrieve the latest data.


Click here for the last 24 hour graph
Click here for the last 48 hour graph
Click here for the last 72 hour graph
Click here for the month to date graph


Weather report/warning/Metars

COLORADO SPRINGS MUNI, CO, United States (KCOS) 38-49N 104-43W 1856M
Oct 02, 2014 - 03:54 AM EDT / 2014.10.02 0754 UTC
Wind: from the NNW (340 degrees) at 21 MPH (18 KT) gusting to 26 MPH (23 KT):0
Visibility: 10 mile(s):0
Sky conditions: partly cloudy
Temperature: 42.1 F (5.6 C)
Dew Point: 35.1 F (1.7 C)
Relative Humidity: 75%
Pressure (altimeter): 30.08 in. Hg (1018 hPa)
ob: KCOS 020754Z 34018G23KT 10SM FEW045 SCT100 06/02 A3008 RMK AO2 SLP141 T00560017 
cycle: 8
Air Force Academy, CO, United States (KAFF) 38-58N 104-49W 1999M
Oct 02, 2014 - 03:58 AM EDT / 2014.10.02 0758 UTC
Wind: from the NNW (330 degrees) at 13 MPH (11 KT):0
Visibility: 10 mile(s):0
Sky conditions: mostly cloudy
Weather: light rain
Precipitation last hour: A trace
Temperature: 38.8 F (3.8 C)
Dew Point: 34.2 F (1.2 C)
Relative Humidity: 83%
Pressure (altimeter): 30.1 in. Hg (1019 hPa)
ob: KAFF 020758Z AUTO 33011KT 10SM -RA BKN013 04/01 A3010 RMK AO2 UPB0748E0754RAB0754 CIG 013V070 BKN V SCT SLP147 P0000 T00380012
cycle: 8
Fort Carson, CO, United States (KFCS) 38-42N 104-46W 1789M
Oct 02, 2014 - 03:58 AM EDT / 2014.10.02 0758 UTC
Wind: from the N (360 degrees) at 21 MPH (18 KT) gusting to 26 MPH (23 KT):0
Visibility: 10 mile(s):0
Sky conditions: mostly cloudy
Temperature: 43.2 F (6.2 C)
Dew Point: 34.9 F (1.6 C)
Relative Humidity: 72%
Pressure (altimeter): 30.06 in. Hg (1017 hPa)
ob: KFCS 020758Z AUTO 36018G23KT 10SM BKN120 06/02 A3006 RMK AO2 PK WND 35031/08 SLP157 T00620016
cycle: 8



The data is logged at two minute intervals, but there is data recorded every minute. Best viewed in 800 x 600 and True colour.

Use the RELOAD facility on your browser to retrieve the latest data.

Click here for a daily update of the averages/extremes to date for the month
Created by "Weather Display" software version 10.37R Build 78 at this start time/date 03:32 am 9/11/2014